Fillmore, Indiana
Current Conditions -  °F | °C
As of 6:15 PM on Wednesday 22 Oct 2014 (Local Time) from K4I7 Reporting Station
Clear Clear  
Wind Chill: 55°   Ceiling: Unl
Heat Index: 55°   Visibility: 10mi
Dew Point: 41°   Wind: 3mph
Humidity: 58%   Direction: 50°NE
Pressure: 30.26"   Gusts: NA
Location:  39.67°N, 86.75°W
Report Text: K4I7 222215Z AUTO 05003KT 10SM CLR 13/05 A3026 RMK AO2
Loading
Personal Weather Stations






























Interactive Weather Map New forecast layout! Learn more

10-Day Weather Forecast

Advertisements
Track Severe Weather on mobile